Time,TemperatureF,DewpointF,PressureIn,WindDirection,WindDirectionDegrees,WindSpeedMPH,WindSpeedGustMPH,Humidity,HourlyPrecipIn,Conditions,Clouds,dailyrainin,SoftwareType,DateUTC
2013-01-21 00:00:00,-8.4,-13.1,30.27,West,259,0.0,1.0,79,0.00,,,0.00,VWS V12.07,2013-01-21 06:00:00,
2013-01-21 00:10:00,-8.6,-13.3,30.27,West,259,0.0,0.0,79,0.00,,,0.00,VWS V12.07,2013-01-21 06:10:00,
2013-01-21 00:15:00,-8.6,-13.3,30.27,West,259,0.0,0.0,79,0.00,,,0.00,VWS V12.07,2013-01-21 06:15:00,
2013-01-21 00:20:00,-8.7,-13.4,30.27,West,259,0.0,1.0,79,0.00,,,0.00,VWS V12.07,2013-01-21 06:20:00,
2013-01-21 00:30:00,-8.8,-13.5,30.26,West,259,0.0,1.0,79,0.00,,,0.00,VWS V12.07,2013-01-21 06:30:00,
2013-01-21 00:35:00,-8.8,-13.5,30.26,West,259,0.0,0.0,79,0.00,,,0.00,VWS V12.07,2013-01-21 06:35:00,
2013-01-21 00:40:00,-8.8,-13.5,30.26,West,259,0.0,0.0,79,0.00,,,0.00,VWS V12.07,2013-01-21 06:40:00,
2013-01-21 00:45:00,-8.8,-13.5,30.26,West,259,0.0,0.0,79,0.00,,,0.00,VWS V12.07,2013-01-21 06:45:00,
2013-01-21 00:55:00,-8.6,-13.3,30.26,West,259,0.0,0.0,79,0.00,,,0.00,VWS V12.07,2013-01-21 06:55:00,
2013-01-21 01:00:00,-8.4,-12.9,30.26,West,259,0.0,1.0,80,0.00,,,0.00,VWS V12.07,2013-01-21 07:00:00,
2013-01-21 01:05:00,-8.3,-12.8,30.25,West,259,0.0,0.0,80,0.00,,,0.00,VWS V12.07,2013-01-21 07:05:00,
2013-01-21 01:10:00,-8.2,-12.7,30.25,West,259,0.0,0.0,80,0.00,,,0.00,VWS V12.07,2013-01-21 07:10:00,
2013-01-21 01:15:00,-8.1,-12.6,30.25,West,259,0.0,1.0,80,0.00,,,0.00,VWS V12.07,2013-01-21 07:15:00,
2013-01-21 01:25:00,-8.1,-12.9,30.25,West,259,0.0,1.0,79,0.00,,,0.00,VWS V12.07,2013-01-21 07:25:00,
2013-01-21 01:35:00,-8.1,-12.6,30.25,West,265,2.0,2.0,80,0.00,,,0.00,VWS V12.07,2013-01-21 07:35:00,
2013-01-21 01:40:00,-8.0,-12.5,30.25,West,266,0.0,2.0,80,0.00,,,0.00,VWS V12.07,2013-01-21 07:40:00,
2013-01-21 01:45:00,-7.9,-12.4,30.25,West,276,1.0,2.0,80,0.00,,,0.00,VWS V12.07,2013-01-21 07:45:00,
2013-01-21 01:50:00,-7.8,-12.3,30.25,West,276,0.0,2.0,80,0.00,,,0.00,VWS V12.07,2013-01-21 07:50:00,
2013-01-21 01:55:00,-7.7,-12.2,30.25,West,276,1.0,2.0,80,0.00,,,0.00,VWS V12.07,2013-01-21 07:55:00,
2013-01-21 02:05:00,-7.3,-11.6,30.25,West,277,0.0,2.0,81,0.00,,,0.00,VWS V12.07,2013-01-21 08:05:00,
2013-01-21 02:10:00,-7.1,-11.4,30.25,WNW,296,0.0,5.0,81,0.00,,,0.00,VWS V12.07,2013-01-21 08:10:00,
2013-01-21 02:20:00,-6.7,-11.0,30.25,West,260,0.0,5.0,81,0.00,,,0.00,VWS V12.07,2013-01-21 08:20:00,
2013-01-21 02:25:00,-6.6,-10.9,30.25,WSW,257,1.0,5.0,81,0.00,,,0.00,VWS V12.07,2013-01-21 08:25:00,
2013-01-21 02:30:00,-6.6,-11.1,30.25,West,278,0.0,5.0,80,0.00,,,0.00,VWS V12.07,2013-01-21 08:30:00,
2013-01-21 02:40:00,-6.5,-11.0,30.25,West,269,0.0,2.0,80,0.00,,,0.00,VWS V12.07,2013-01-21 08:40:00,
2013-01-21 02:50:00,-6.2,-10.8,30.25,West,269,1.0,5.0,80,0.00,,,0.00,VWS V12.07,2013-01-21 08:50:00,
2013-01-21 02:55:00,-6.0,-10.6,30.24,WSW,256,4.0,6.0,80,0.00,,,0.00,VWS V12.07,2013-01-21 08:55:00,
2013-01-21 03:05:00,-5.8,-10.4,30.24,WSW,257,10.0,10.0,80,0.00,,,0.00,VWS V12.07,2013-01-21 09:05:00,
2013-01-21 03:10:00,-5.7,-10.5,30.24,West,259,0.0,10.0,79,0.00,,,0.00,VWS V12.07,2013-01-21 09:10:00,
2013-01-21 03:15:00,-5.7,-10.5,30.24,West,267,0.0,10.0,79,0.00,,,0.00,VWS V12.07,2013-01-21 09:15:00,
2013-01-21 03:20:00,-5.7,-10.5,30.24,WSW,250,2.0,10.0,79,0.00,,,0.00,VWS V12.07,2013-01-21 09:20:00,
2013-01-21 03:25:00,-5.9,-11.0,30.24,WNW,292,0.0,10.0,78,0.00,,,0.00,VWS V12.07,2013-01-21 09:25:00,
2013-01-21 03:30:00,-6.0,-11.1,30.24,WSW,242,0.0,10.0,78,0.00,,,0.00,VWS V12.07,2013-01-21 09:30:00,
2013-01-21 03:40:00,-6.4,-11.4,30.24,WSW,257,0.0,7.0,78,0.00,,,0.00,VWS V12.07,2013-01-21 09:40:00,
2013-01-21 03:45:00,-6.6,-11.6,30.24,SSW,197,1.0,8.0,78,0.00,,,0.00,VWS V12.07,2013-01-21 09:45:00,
2013-01-21 03:55:00,-7.2,-12.2,30.24,WNW,298,0.0,10.0,78,0.00,,,0.00,VWS V12.07,2013-01-21 09:55:00,
2013-01-21 04:00:00,-7.4,-12.7,30.24,West,268,0.0,10.0,77,0.00,,,0.00,VWS V12.07,2013-01-21 10:00:00,
2013-01-21 04:05:00,-7.7,-13.0,30.24,NW,304,1.0,10.0,77,0.00,,,0.00,VWS V12.07,2013-01-21 10:05:00,
2013-01-21 04:10:00,-7.9,-13.2,30.24,West,267,2.0,11.0,77,0.00,,,0.00,VWS V12.07,2013-01-21 10:10:00,
2013-01-21 04:15:00,-8.1,-13.4,30.24,NW,322,2.0,11.0,77,0.00,,,0.00,VWS V12.07,2013-01-21 10:15:00,
2013-01-21 04:20:00,-8.3,-13.6,30.24,West,259,3.0,11.0,77,0.00,,,0.00,VWS V12.07,2013-01-21 10:20:00,
2013-01-21 04:25:00,-8.5,-13.8,30.24,West,263,0.0,12.0,77,0.00,,,0.00,VWS V12.07,2013-01-21 10:25:00,
2013-01-21 04:35:00,-8.8,-13.8,30.24,WSW,257,4.0,4.0,78,0.00,,,0.00,VWS V12.07,2013-01-21 10:35:00,
2013-01-21 04:40:00,-9.0,-14.2,30.24,SW,227,0.0,11.0,77,0.00,,,0.00,VWS V12.07,2013-01-21 10:40:00,
2013-01-21 04:45:00,-9.1,-14.3,30.25,SW,232,1.0,11.0,77,0.00,,,0.00,VWS V12.07,2013-01-21 10:45:00,
2013-01-21 04:50:00,-9.2,-14.4,30.25,South,188,0.0,12.0,77,0.00,,,0.00,VWS V12.07,2013-01-21 10:50:00,
2013-01-21 05:00:00,-9.6,-14.8,30.25,WSW,250,6.0,12.0,77,0.00,,,0.00,VWS V12.07,2013-01-21 11:00:00,
2013-01-21 05:10:00,-9.9,-15.1,30.25,SW,232,2.0,10.0,77,0.00,,,0.00,VWS V12.07,2013-01-21 11:10:00,
2013-01-21 05:15:00,-10.1,-15.3,30.25,WSW,253,0.0,10.0,77,0.00,,,0.00,VWS V12.07,2013-01-21 11:15:00,
2013-01-21 05:20:00,-10.3,-15.5,30.25,WSW,257,2.0,10.0,77,0.00,,,0.00,VWS V12.07,2013-01-21 11:20:00,
2013-01-21 05:25:00,-10.4,-15.6,30.25,WNW,283,2.0,10.0,77,0.00,,,0.00,VWS V12.07,2013-01-21 11:25:00,
2013-01-21 05:30:00,-10.6,-15.8,30.25,WSW,246,1.0,10.0,77,0.00,,,0.00,VWS V12.07,2013-01-21 11:30:00,
2013-01-21 05:35:00,-10.7,-15.9,30.25,West,270,2.0,4.0,77,0.00,,,0.00,VWS V12.07,2013-01-21 11:35:00,
2013-01-21 05:40:00,-10.8,-16.0,30.25,SW,227,2.0,4.0,77,0.00,,,0.00,VWS V12.07,2013-01-21 11:40:00,
2013-01-21 05:45:00,-11.0,-16.2,30.25,WSW,240,0.0,4.0,77,0.00,,,0.00,VWS V12.07,2013-01-21 11:45:00,
2013-01-21 05:50:00,-11.2,-16.4,30.25,West,263,2.0,4.0,77,0.00,,,0.00,VWS V12.07,2013-01-21 11:50:00,
2013-01-21 05:55:00,-11.4,-16.8,30.25,WSW,253,0.0,5.0,76,0.00,,,0.00,VWS V12.07,2013-01-21 11:55:00,
2013-01-21 06:00:00,-11.5,-16.9,30.25,SW,234,0.0,5.0,76,0.00,,,0.00,VWS V12.07,2013-01-21 12:00:00,
2013-01-21 06:05:00,-11.6,-17.0,30.25,SW,229,3.0,6.0,76,0.00,,,0.00,VWS V12.07,2013-01-21 12:05:00,
2013-01-21 06:10:00,-11.6,-16.8,30.25,NW,313,3.0,6.0,77,0.00,,,0.00,VWS V12.07,2013-01-21 12:10:00,
2013-01-21 06:15:00,-11.7,-16.9,30.25,West,264,4.0,11.0,77,0.00,,,0.00,VWS V12.07,2013-01-21 12:15:00,
2013-01-21 06:20:00,-11.8,-17.0,30.25,WSW,240,0.0,11.0,77,0.00,,,0.00,VWS V12.07,2013-01-21 12:20:00,
2013-01-21 06:25:00,-11.9,-17.1,30.25,WSW,245,3.0,11.0,77,0.00,,,0.00,VWS V12.07,2013-01-21 12:25:00,
2013-01-21 06:35:00,-12.1,-17.3,30.25,WNW,294,2.0,4.0,77,0.00,,,0.00,VWS V12.07,2013-01-21 12:35:00,
2013-01-21 06:40:00,-12.3,-17.7,30.25,West,261,0.0,7.0,76,0.00,,,0.00,VWS V12.07,2013-01-21 12:40:00,
2013-01-21 06:50:00,-12.5,-17.9,30.25,WSW,245,0.0,8.0,76,0.00,,,0.00,VWS V12.07,2013-01-21 12:50:00,
2013-01-21 06:55:00,-12.6,-18.0,30.25,West,260,3.0,8.0,76,0.00,,,0.00,VWS V12.07,2013-01-21 12:55:00,
2013-01-21 07:05:00,-12.8,-18.2,30.25,West,275,0.0,6.0,76,0.00,,,0.00,VWS V12.07,2013-01-21 13:05:00,
2013-01-21 07:10:00,-12.9,-18.3,30.25,NW,325,4.0,6.0,76,0.00,,,0.00,VWS V12.07,2013-01-21 13:10:00,
2013-01-21 07:15:00,-13.1,-18.5,30.25,West,273,2.0,6.0,76,0.00,,,0.00,VWS V12.07,2013-01-21 13:15:00,
2013-01-21 07:20:00,-13.3,-18.7,30.25,WSW,254,0.0,7.0,76,0.00,,,0.00,VWS V12.07,2013-01-21 13:20:00,
2013-01-21 07:25:00,-13.4,-18.8,30.25,West,279,0.0,7.0,76,0.00,,,0.00,VWS V12.07,2013-01-21 13:25:00,
2013-01-21 07:35:00,-13.5,-18.9,30.26,WSW,248,1.0,2.0,76,0.00,,,0.00,VWS V12.07,2013-01-21 13:35:00,
2013-01-21 07:40:00,-13.6,-19.0,30.26,WSW,256,2.0,12.0,76,0.00,,,0.00,VWS V12.07,2013-01-21 13:40:00,
2013-01-21 07:45:00,-13.7,-19.1,30.26,WSW,257,0.0,12.0,76,0.00,,,0.00,VWS V12.07,2013-01-21 13:45:00,
2013-01-21 07:50:00,-13.8,-19.2,30.26,West,267,1.0,12.0,76,0.00,,,0.00,VWS V12.07,2013-01-21 13:50:00,
2013-01-21 07:55:00,-13.9,-19.3,30.26,WNW,292,0.0,12.0,76,0.00,,,0.00,VWS V12.07,2013-01-21 13:55:00,
2013-01-21 08:05:00,-14.0,-19.6,30.27,WSW,244,0.0,8.0,75,0.00,,,0.00,VWS V12.07,2013-01-21 14:05:00,
2013-01-21 08:10:00,-14.0,-19.6,30.27,WSW,248,4.0,8.0,75,0.00,,,0.00,VWS V12.07,2013-01-21 14:10:00,
2013-01-21 08:15:00,-14.0,-19.6,30.27,SW,234,4.0,8.0,75,0.00,,,0.00,VWS V12.07,2013-01-21 14:15:00,
2013-01-21 08:20:00,-13.9,-19.5,30.27,SSW,209,2.0,8.0,75,0.00,,,0.00,VWS V12.07,2013-01-21 14:20:00,
2013-01-21 08:25:00,-13.9,-19.5,30.27,West,269,1.0,8.0,75,0.00,,,0.00,VWS V12.07,2013-01-21 14:25:00,
2013-01-21 08:30:00,-13.9,-19.8,30.27,West,269,0.0,8.0,74,0.00,,,0.00,VWS V12.07,2013-01-21 14:30:00,
2013-01-21 08:40:00,-13.9,-19.8,30.28,West,259,2.0,17.0,74,0.00,,,0.00,VWS V12.07,2013-01-21 14:40:00,
2013-01-21 08:45:00,-13.8,-19.7,30.27,NNW,340,0.0,17.0,74,0.00,,,0.00,VWS V12.07,2013-01-21 14:45:00,
2013-01-21 08:50:00,-13.7,-19.9,30.28,WSW,242,2.0,17.0,73,0.00,,,0.00,VWS V12.07,2013-01-21 14:50:00,
2013-01-21 08:55:00,-13.5,-19.6,30.28,WNW,295,9.0,17.0,73,0.00,,,0.00,VWS V12.07,2013-01-21 14:55:00,
2013-01-21 09:00:00,-13.5,-19.6,30.28,WSW,246,3.0,17.0,73,0.00,,,0.00,VWS V12.07,2013-01-21 15:00:00,
2013-01-21 09:05:00,-13.4,-19.6,30.28,SW,219,1.0,10.0,73,0.00,,,0.00,VWS V12.07,2013-01-21 15:05:00,
2013-01-21 09:15:00,-13.2,-19.4,30.29,West,279,0.0,10.0,73,0.00,,,0.00,VWS V12.07,2013-01-21 15:15:00,
2013-01-21 09:20:00,-13.0,-19.4,30.29,SSE,159,0.0,10.0,72,0.00,,,0.00,VWS V12.07,2013-01-21 15:20:00,
2013-01-21 09:25:00,-12.8,-19.0,30.30,West,271,0.0,10.0,73,0.00,,,0.00,VWS V12.07,2013-01-21 15:25:00,
2013-01-21 09:30:00,-12.8,-19.2,30.30,NW,314,0.0,10.0,72,0.00,,,0.00,VWS V12.07,2013-01-21 15:30:00,
2013-01-21 09:35:00,-12.6,-19.0,30.30,WSW,254,1.0,9.0,72,0.00,,,0.00,VWS V12.07,2013-01-21 15:35:00,
2013-01-21 09:40:00,-12.4,-19.1,30.30,West,275,2.0,9.0,71,0.00,,,0.00,VWS V12.07,2013-01-21 15:40:00,
2013-01-21 09:45:00,-12.3,-19.3,30.30,West,264,0.0,12.0,70,0.00,,,0.00,VWS V12.07,2013-01-21 15:45:00,
2013-01-21 09:50:00,-12.4,-19.7,30.30,WSW,256,0.0,12.0,69,0.00,,,0.00,VWS V12.07,2013-01-21 15:50:00,
2013-01-21 10:00:00,-12.3,-19.6,30.30,SW,215,0.0,12.0,69,0.00,,,0.00,VWS V12.07,2013-01-21 16:00:00,
2013-01-21 10:05:00,-12.1,-19.4,30.30,SSW,193,3.0,7.0,69,0.00,,,0.00,VWS V12.07,2013-01-21 16:05:00,
2013-01-21 10:10:00,-12.3,-20.1,30.31,West,263,7.0,16.0,67,0.00,,,0.00,VWS V12.07,2013-01-21 16:10:00,
2013-01-21 10:20:00,-12.0,-19.9,30.31,WNW,290,5.0,16.0,67,0.00,,,0.00,VWS V12.07,2013-01-21 16:20:00,
2013-01-21 10:30:00,-11.9,-20.0,30.31,West,267,5.0,18.0,66,0.00,,,0.00,VWS V12.07,2013-01-21 16:30:00,
2013-01-21 10:35:00,-11.9,-20.0,30.31,WSW,252,2.0,14.0,66,0.00,,,0.00,VWS V12.07,2013-01-21 16:35:00,
2013-01-21 10:40:00,-11.8,-19.7,30.31,WSW,256,1.0,14.0,67,0.00,,,0.00,VWS V12.07,2013-01-21 16:40:00,
2013-01-21 10:45:00,-11.6,-19.5,30.31,WNW,302,1.0,14.0,67,0.00,,,0.00,VWS V12.07,2013-01-21 16:45:00,
2013-01-21 10:50:00,-11.3,-19.2,30.31,NNW,331,0.0,14.0,67,0.00,,,0.00,VWS V12.07,2013-01-21 16:50:00,
2013-01-21 10:55:00,-11.3,-19.8,30.31,North,360,1.0,14.0,65,0.00,,,0.00,VWS V12.07,2013-01-21 16:55:00,
2013-01-21 11:00:00,-11.3,-19.8,30.31,West,271,1.0,14.0,65,0.00,,,0.00,VWS V12.07,2013-01-21 17:00:00,
2013-01-21 11:05:00,-11.2,-19.7,30.31,WSW,245,4.0,4.0,65,0.00,,,0.00,VWS V12.07,2013-01-21 17:05:00,
2013-01-21 11:10:00,-11.0,-19.2,30.31,WSW,257,0.0,5.0,66,0.00,,,0.00,VWS V12.07,2013-01-21 17:10:00,
2013-01-21 11:15:00,-11.0,-19.2,30.31,WSW,254,11.0,11.0,66,0.00,,,0.00,VWS V12.07,2013-01-21 17:15:00,
2013-01-21 11:25:00,-10.7,-18.6,30.31,NW,309,4.0,11.0,67,0.00,,,0.00,VWS V12.07,2013-01-21 17:25:00,
2013-01-21 11:35:00,-10.5,-18.7,30.31,West,275,12.0,12.0,66,0.00,,,0.00,VWS V12.07,2013-01-21 17:35:00,
2013-01-21 11:40:00,-10.6,-18.8,30.31,WSW,257,2.0,12.0,66,0.00,,,0.00,VWS V12.07,2013-01-21 17:40:00,
2013-01-21 11:45:00,-10.9,-19.4,30.31,NNW,331,4.0,12.0,65,0.00,,,0.00,VWS V12.07,2013-01-21 17:45:00,
2013-01-21 11:55:00,-10.5,-18.7,30.31,WSW,244,0.0,12.0,66,0.00,,,0.00,VWS V12.07,2013-01-21 17:55:00,
2013-01-21 12:00:00,-10.3,-18.5,30.30,WNW,292,2.0,12.0,66,0.00,,,0.00,VWS V12.07,2013-01-21 18:00:00,
2013-01-21 12:05:00,-10.4,-18.9,30.30,NNE,27,4.0,7.0,65,0.00,,,0.00,VWS V12.07,2013-01-21 18:05:00,
2013-01-21 12:10:00,-10.4,-19.2,30.30,WNW,288,1.0,7.0,64,0.00,,,0.00,VWS V12.07,2013-01-21 18:10:00,
2013-01-21 12:15:00,-10.3,-19.1,30.29,WSW,242,1.0,7.0,64,0.00,,,0.00,VWS V12.07,2013-01-21 18:15:00,
2013-01-21 12:20:00,-10.4,-19.2,30.29,SW,221,0.0,8.0,64,0.00,,,0.00,VWS V12.07,2013-01-21 18:20:00,
2013-01-21 12:25:00,-10.4,-19.5,30.30,WSW,238,1.0,10.0,63,0.00,,,0.00,VWS V12.07,2013-01-21 18:25:00,
2013-01-21 12:30:00,-10.6,-19.7,30.30,SSE,155,1.0,10.0,63,0.00,,,0.00,VWS V12.07,2013-01-21 18:30:00,
2013-01-21 12:40:00,-10.5,-19.6,30.29,WSW,241,3.0,12.0,63,0.00,,,0.00,VWS V12.07,2013-01-21 18:40:00,
2013-01-21 12:45:00,-10.3,-19.1,30.29,NNW,331,2.0,12.0,64,0.00,,,0.00,VWS V12.07,2013-01-21 18:45:00,
2013-01-21 12:50:00,-10.2,-19.3,30.29,WSW,256,0.0,12.0,63,0.00,,,0.00,VWS V12.07,2013-01-21 18:50:00,
2013-01-21 13:00:00,-10.3,-19.4,30.29,SW,215,0.0,12.0,63,0.00,,,0.00,VWS V12.07,2013-01-21 19:00:00,
2013-01-21 13:05:00,-10.1,-18.9,30.29,NNW,329,0.0,2.0,64,0.00,,,0.00,VWS V12.07,2013-01-21 19:05:00,
2013-01-21 13:10:00,-9.8,-18.6,30.29,NW,309,2.0,7.0,64,0.00,,,0.00,VWS V12.07,2013-01-21 19:10:00,
2013-01-21 13:15:00,-9.9,-19.0,30.29,WNW,292,3.0,9.0,63,0.00,,,0.00,VWS V12.07,2013-01-21 19:15:00,
2013-01-21 13:25:00,-9.8,-18.9,30.29,SW,222,0.0,10.0,63,0.00,,,0.00,VWS V12.07,2013-01-21 19:25:00,
2013-01-21 13:30:00,-10.0,-19.8,30.29,WNW,296,0.0,10.0,61,0.00,,,0.00,VWS V12.07,2013-01-21 19:30:00,
2013-01-21 13:40:00,-10.4,-19.8,30.29,WSW,258,4.0,10.0,62,0.00,,,0.00,VWS V12.07,2013-01-21 19:40:00,
2013-01-21 13:50:00,-10.0,-18.5,30.28,WNW,296,1.0,10.0,65,0.00,,,0.00,VWS V12.07,2013-01-21 19:50:00,
2013-01-21 13:55:00,-9.8,-18.6,30.28,WSW,258,1.0,10.0,64,0.00,,,0.00,VWS V12.07,2013-01-21 19:55:00,
2013-01-21 14:00:00,-9.6,-18.7,30.28,West,272,2.0,10.0,63,0.00,,,0.00,VWS V12.07,2013-01-21 20:00:00,
2013-01-21 14:05:00,-9.4,-18.9,30.28,SW,223,1.0,7.0,62,0.00,,,0.00,VWS V12.07,2013-01-21 20:05:00,
2013-01-21 14:10:00,-9.3,-19.1,30.28,WSW,252,2.0,8.0,61,0.00,,,0.00,VWS V12.07,2013-01-21 20:10:00,
2013-01-21 14:20:00,-9.6,-18.7,30.29,SW,229,1.0,10.0,63,0.00,,,0.00,VWS V12.07,2013-01-21 20:20:00,
2013-01-21 14:25:00,-9.6,-18.4,30.29,WNW,292,0.0,10.0,64,0.00,,,0.00,VWS V12.07,2013-01-21 20:25:00,
2013-01-21 14:30:00,-9.5,-18.3,30.29,WSW,244,5.0,10.0,64,0.00,,,0.00,VWS V12.07,2013-01-21 20:30:00,
2013-01-21 14:40:00,-9.4,-18.2,30.29,North,355,0.0,7.0,64,0.00,,,0.00,VWS V12.07,2013-01-21 20:40:00,
2013-01-21 14:45:00,-9.4,-18.5,30.29,WSW,249,0.0,11.0,63,0.00,,,0.00,VWS V12.07,2013-01-21 20:45:00,
2013-01-21 14:50:00,-9.5,-19.0,30.29,West,261,1.0,11.0,62,0.00,,,0.00,VWS V12.07,2013-01-21 20:50:00,
2013-01-21 14:55:00,-9.6,-19.0,30.30,NNW,341,0.0,11.0,62,0.00,,,0.00,VWS V12.07,2013-01-21 20:55:00,
2013-01-21 15:00:00,-9.5,-19.3,30.30,WSW,237,0.0,11.0,61,0.00,,,0.00,VWS V12.07,2013-01-21 21:00:00,
2013-01-21 15:05:00,-9.3,-19.1,30.30,North,360,0.0,3.0,61,0.00,,,0.00,VWS V12.07,2013-01-21 21:05:00,
2013-01-21 15:10:00,-9.1,-18.9,30.30,West,276,0.0,5.0,61,0.00,,,0.00,VWS V12.07,2013-01-21 21:10:00,
2013-01-21 15:15:00,-9.4,-19.2,30.30,West,266,0.0,9.0,61,0.00,,,0.00,VWS V12.07,2013-01-21 21:15:00,
2013-01-21 15:25:00,-9.7,-19.5,30.31,WSW,240,3.0,12.0,61,0.00,,,0.00,VWS V12.07,2013-01-21 21:25:00,
2013-01-21 15:30:00,-10.0,-19.4,30.31,SW,232,5.0,12.0,62,0.00,,,0.00,VWS V12.07,2013-01-21 21:30:00,
2013-01-21 15:40:00,-9.9,-18.4,30.31,SW,222,1.0,12.0,65,0.00,,,0.00,VWS V12.07,2013-01-21 21:40:00,
2013-01-21 15:45:00,-10.0,-19.1,30.31,NW,322,1.0,12.0,63,0.00,,,0.00,VWS V12.07,2013-01-21 21:45:00,
2013-01-21 15:50:00,-10.2,-19.6,30.31,WSW,256,0.0,12.0,62,0.00,,,0.00,VWS V12.07,2013-01-21 21:50:00,
2013-01-21 15:55:00,-10.4,-20.1,30.31,West,269,1.0,12.0,61,0.00,,,0.00,VWS V12.07,2013-01-21 21:55:00,
2013-01-21 16:00:00,-10.4,-19.8,30.31,West,259,2.0,12.0,62,0.00,,,0.00,VWS V12.07,2013-01-21 22:00:00,
2013-01-21 16:05:00,-10.5,-19.9,30.31,West,263,0.0,3.0,62,0.00,,,0.00,VWS V12.07,2013-01-21 22:05:00,
2013-01-21 16:10:00,-10.5,-19.9,30.31,West,259,0.0,4.0,62,0.00,,,0.00,VWS V12.07,2013-01-21 22:10:00,
2013-01-21 16:15:00,-10.5,-20.2,30.31,West,276,2.0,8.0,61,0.00,,,0.00,VWS V12.07,2013-01-21 22:15:00,
2013-01-21 16:25:00,-10.6,-20.6,30.32,West,259,6.0,8.0,60,0.00,,,0.00,VWS V12.07,2013-01-21 22:25:00,
2013-01-21 16:30:00,-10.8,-21.1,30.32,SW,224,3.0,9.0,59,0.00,,,0.00,VWS V12.07,2013-01-21 22:30:00,
2013-01-21 16:35:00,-10.9,-21.2,30.32,NW,315,0.0,2.0,59,0.00,,,0.00,VWS V12.07,2013-01-21 22:35:00,
2013-01-21 16:40:00,-11.1,-21.1,30.32,ESE,105,0.0,4.0,60,0.00,,,0.00,VWS V12.07,2013-01-21 22:40:00,
2013-01-21 16:45:00,-11.2,-21.2,30.32,West,273,0.0,4.0,60,0.00,,,0.00,VWS V12.07,2013-01-21 22:45:00,
2013-01-21 16:50:00,-11.4,-21.1,30.32,NW,309,0.0,4.0,61,0.00,,,0.00,VWS V12.07,2013-01-21 22:50:00,
2013-01-21 16:55:00,-11.5,-21.2,30.32,WNW,288,0.0,4.0,61,0.00,,,0.00,VWS V12.07,2013-01-21 22:55:00,
2013-01-21 17:00:00,-11.7,-21.4,30.32,WSW,254,2.0,6.0,61,0.00,,,0.00,VWS V12.07,2013-01-21 23:00:00,
2013-01-21 17:05:00,-11.8,-21.1,30.32,West,264,0.0,1.0,62,0.00,,,0.00,VWS V12.07,2013-01-21 23:05:00,
2013-01-21 17:10:00,-12.0,-21.0,30.32,West,260,0.0,6.0,63,0.00,,,0.00,VWS V12.07,2013-01-21 23:10:00,
2013-01-21 17:15:00,-12.0,-20.4,30.32,WSW,245,1.0,6.0,65,0.00,,,0.00,VWS V12.07,2013-01-21 23:15:00,
2013-01-21 17:20:00,-12.0,-19.9,30.33,West,260,1.0,6.0,67,0.00,,,0.00,VWS V12.07,2013-01-21 23:20:00,
2013-01-21 17:25:00,-12.2,-20.0,30.33,West,265,0.0,6.0,67,0.00,,,0.00,VWS V12.07,2013-01-21 23:25:00,
2013-01-21 17:30:00,-12.4,-20.2,30.33,West,265,0.0,6.0,67,0.00,,,0.00,VWS V12.07,2013-01-21 23:30:00,
2013-01-21 17:35:00,-12.6,-20.1,30.33,West,265,0.0,0.0,68,0.00,,,0.00,VWS V12.07,2013-01-21 23:35:00,
2013-01-21 17:40:00,-12.8,-20.3,30.33,West,265,0.0,1.0,68,0.00,,,0.00,VWS V12.07,2013-01-21 23:40:00,
2013-01-21 17:50:00,-13.1,-20.4,30.33,WSW,250,0.0,4.0,69,0.00,,,0.00,VWS V12.07,2013-01-21 23:50:00,
2013-01-21 18:00:00,-13.4,-20.6,30.34,WSW,249,0.0,4.0,69,0.00,,,0.00,VWS V12.07,2013-01-22 00:00:00,
2013-01-21 18:05:00,-13.7,-20.9,30.34,WSW,249,0.0,0.0,69,0.00,,,0.00,VWS V12.07,2013-01-22 00:05:00,
2013-01-21 18:10:00,-13.9,-21.1,30.34,WSW,250,0.0,1.0,69,0.00,,,0.00,VWS V12.07,2013-01-22 00:10:00,
2013-01-21 18:15:00,-14.2,-21.1,30.34,WSW,250,0.0,1.0,70,0.00,,,0.00,VWS V12.07,2013-01-22 00:15:00,
2013-01-21 18:20:00,-14.5,-21.4,30.34,WSW,249,0.0,2.0,70,0.00,,,0.00,VWS V12.07,2013-01-22 00:20:00,
2013-01-21 18:30:00,-14.9,-21.5,30.34,WSW,249,0.0,2.0,71,0.00,,,0.00,VWS V12.07,2013-01-22 00:30:00,
2013-01-21 18:35:00,-15.1,-21.7,30.34,WSW,249,0.0,0.0,71,0.00,,,0.00,VWS V12.07,2013-01-22 00:35:00,
2013-01-21 18:45:00,-15.3,-21.9,30.34,WSW,249,0.0,2.0,71,0.00,,,0.00,VWS V12.07,2013-01-22 00:45:00,
2013-01-21 18:50:00,-15.4,-21.8,30.35,WSW,249,0.0,2.0,72,0.00,,,0.00,VWS V12.07,2013-01-22 00:50:00,
2013-01-21 18:55:00,-15.6,-22.0,30.35,WSW,249,0.0,2.0,72,0.00,,,0.00,VWS V12.07,2013-01-22 00:55:00,
2013-01-21 19:00:00,-15.7,-22.0,30.35,WSW,249,0.0,2.0,72,0.00,,,0.00,VWS V12.07,2013-01-22 01:00:00,
2013-01-21 19:05:00,-15.8,-22.1,30.35,WSW,249,0.0,0.0,72,0.00,,,0.00,VWS V12.07,2013-01-22 01:05:00,
2013-01-21 19:10:00,-16.0,-22.1,30.35,WSW,249,0.0,0.0,73,0.00,,,0.00,VWS V12.07,2013-01-22 01:10:00,
2013-01-21 19:15:00,-16.1,-22.4,30.35,WSW,249,0.0,0.0,72,0.00,,,0.00,VWS V12.07,2013-01-22 01:15:00,
2013-01-21 19:25:00,-16.3,-22.4,30.35,WSW,250,0.0,3.0,73,0.00,,,0.00,VWS V12.07,2013-01-22 01:25:00,
2013-01-21 19:30:00,-16.3,-22.4,30.35,WSW,250,0.0,3.0,73,0.00,,,0.00,VWS V12.07,2013-01-22 01:30:00,
2013-01-21 19:35:00,-16.3,-22.4,30.35,WSW,249,0.0,1.0,73,0.00,,,0.00,VWS V12.07,2013-01-22 01:35:00,
2013-01-21 19:40:00,-16.4,-22.5,30.35,West,263,0.0,3.0,73,0.00,,,0.00,VWS V12.07,2013-01-22 01:40:00,
2013-01-21 19:45:00,-16.5,-22.6,30.35,West,263,0.0,3.0,73,0.00,,,0.00,VWS V12.07,2013-01-22 01:45:00,
2013-01-21 19:50:00,-16.6,-22.4,30.35,West,263,0.0,3.0,74,0.00,,,0.00,VWS V12.07,2013-01-22 01:50:00,
2013-01-21 19:55:00,-16.6,-22.4,30.35,West,263,0.0,3.0,74,0.00,,,0.00,VWS V12.07,2013-01-22 01:55:00,
2013-01-21 20:00:00,-16.7,-22.5,30.35,West,263,0.0,3.0,74,0.00,,,0.00,VWS V12.07,2013-01-22 02:00:00,
2013-01-21 20:10:00,-16.8,-22.6,30.36,West,263,0.0,2.0,74,0.00,,,0.00,VWS V12.07,2013-01-22 02:10:00,
2013-01-21 20:15:00,-16.9,-22.7,30.36,West,263,0.0,2.0,74,0.00,,,0.00,VWS V12.07,2013-01-22 02:15:00,
2013-01-21 20:20:00,-17.0,-22.8,30.36,West,263,0.0,2.0,74,0.00,,,0.00,VWS V12.07,2013-01-22 02:20:00,
2013-01-21 20:25:00,-17.1,-22.6,30.36,West,263,0.0,2.0,75,0.00,,,0.00,VWS V12.07,2013-01-22 02:25:00,
2013-01-21 20:30:00,-17.1,-22.6,30.36,West,263,0.0,2.0,75,0.00,,,0.00,VWS V12.07,2013-01-22 02:30:00,
2013-01-21 20:35:00,-17.2,-23.0,30.36,West,263,0.0,1.0,74,0.00,,,0.00,VWS V12.07,2013-01-22 02:35:00,
2013-01-21 20:45:00,-17.2,-22.7,30.36,West,263,0.0,2.0,75,0.00,,,0.00,VWS V12.07,2013-01-22 02:45:00,
2013-01-21 20:50:00,-17.1,-22.6,30.36,West,263,1.0,2.0,75,0.00,,,0.00,VWS V12.07,2013-01-22 02:50:00,
2013-01-21 20:55:00,-17.1,-22.6,30.36,West,264,0.0,3.0,75,0.00,,,0.00,VWS V12.07,2013-01-22 02:55:00,
2013-01-21 21:00:00,-17.1,-22.6,30.36,West,261,2.0,3.0,75,0.00,,,0.00,VWS V12.07,2013-01-22 03:00:00,
2013-01-21 21:05:00,-17.0,-22.5,30.36,WNW,293,4.0,5.0,75,0.00,,,0.00,VWS V12.07,2013-01-22 03:05:00,
2013-01-21 21:10:00,-16.9,-22.2,30.36,SW,215,1.0,5.0,76,0.00,,,0.00,VWS V12.07,2013-01-22 03:10:00,
2013-01-21 21:15:00,-16.9,-22.2,30.36,WSW,237,0.0,5.0,76,0.00,,,0.00,VWS V12.07,2013-01-22 03:15:00,
2013-01-21 21:25:00,-16.7,-22.2,30.36,West,261,1.0,6.0,75,0.00,,,0.00,VWS V12.07,2013-01-22 03:25:00,
2013-01-21 21:30:00,-16.7,-22.2,30.36,West,269,0.0,6.0,75,0.00,,,0.00,VWS V12.07,2013-01-22 03:30:00,
2013-01-21 21:35:00,-16.7,-22.2,30.36,WNW,295,0.0,3.0,75,0.00,,,0.00,VWS V12.07,2013-01-22 03:35:00,
2013-01-21 21:40:00,-16.7,-22.2,30.36,WNW,288,0.0,3.0,75,0.00,,,0.00,VWS V12.07,2013-01-22 03:40:00,
2013-01-21 21:45:00,-16.7,-22.2,30.36,WSW,242,1.0,4.0,75,0.00,,,0.00,VWS V12.07,2013-01-22 03:45:00,
2013-01-21 21:50:00,-16.7,-22.2,30.36,WSW,248,1.0,4.0,75,0.00,,,0.00,VWS V12.07,2013-01-22 03:50:00,
2013-01-21 22:00:00,-16.5,-22.0,30.36,WSW,253,0.0,7.0,75,0.00,,,0.00,VWS V12.07,2013-01-22 04:00:00,
2013-01-21 22:05:00,-16.5,-22.3,30.37,West,260,2.0,2.0,74,0.00,,,0.00,VWS V12.07,2013-01-22 04:05:00,
2013-01-21 22:10:00,-16.5,-22.3,30.37,West,273,1.0,4.0,74,0.00,,,0.00,VWS V12.07,2013-01-22 04:10:00,
2013-01-21 22:15:00,-16.3,-21.9,30.37,WSW,258,0.0,4.0,75,0.00,,,0.00,VWS V12.07,2013-01-22 04:15:00,
2013-01-21 22:20:00,-16.1,-21.7,30.37,WSW,252,0.0,9.0,75,0.00,,,0.00,VWS V12.07,2013-01-22 04:20:00,
2013-01-21 22:25:00,-16.0,-21.8,30.37,West,262,1.0,9.0,74,0.00,,,0.00,VWS V12.07,2013-01-22 04:25:00,
2013-01-21 22:30:00,-15.9,-21.7,30.37,WSW,248,7.0,9.0,74,0.00,,,0.00,VWS V12.07,2013-01-22 04:30:00,
2013-01-21 22:35:00,-15.8,-21.6,30.37,WSW,241,1.0,7.0,74,0.00,,,0.00,VWS V12.07,2013-01-22 04:35:00,
2013-01-21 22:45:00,-15.8,-21.6,30.37,NW,305,0.0,7.0,74,0.00,,,0.00,VWS V12.07,2013-01-22 04:45:00,
2013-01-21 22:50:00,-15.9,-21.7,30.37,WSW,241,1.0,7.0,74,0.00,,,0.00,VWS V12.07,2013-01-22 04:50:00,
2013-01-21 23:00:00,-15.8,-21.6,30.37,West,273,1.0,7.0,74,0.00,,,0.00,VWS V12.07,2013-01-22 05:00:00,
2013-01-21 23:05:00,-15.8,-21.6,30.37,WSW,252,1.0,5.0,74,0.00,,,0.00,VWS V12.07,2013-01-22 05:05:00,
2013-01-21 23:10:00,-15.9,-21.7,30.37,WSW,258,1.0,6.0,74,0.00,,,0.00,VWS V12.07,2013-01-22 05:10:00,
2013-01-21 23:15:00,-16.0,-21.8,30.37,West,267,2.0,6.0,74,0.00,,,0.00,VWS V12.07,2013-01-22 05:15:00,
2013-01-21 23:20:00,-16.2,-22.0,30.37,NW,315,2.0,7.0,74,0.00,,,0.00,VWS V12.07,2013-01-22 05:20:00,
2013-01-21 23:25:00,-16.3,-22.1,30.37,SW,225,0.0,7.0,74,0.00,,,0.00,VWS V12.07,2013-01-22 05:25:00,
2013-01-21 23:30:00,-16.4,-22.2,30.37,WSW,248,0.0,7.0,74,0.00,,,0.00,VWS V12.07,2013-01-22 05:30:00,
2013-01-21 23:40:00,-16.5,-22.0,30.37,WSW,249,1.0,2.0,75,0.00,,,0.00,VWS V12.07,2013-01-22 05:40:00,
2013-01-21 23:45:00,-16.6,-22.1,30.37,West,268,0.0,3.0,75,0.00,,,0.00,VWS V12.07,2013-01-22 05:45:00,
2013-01-21 23:55:00,-16.9,-22.4,30.37,NW,310,0.0,8.0,75,0.00,,,0.00,VWS V12.07,2013-01-22 05:55:00,